sensor_id;sensor_type;location;lat;lon;timestamp;temperature;humidity
18721;DHT22;9489;50.948;3.114;2023-07-31T00:00:44;17.50;99.90
18721;DHT22;9489;50.948;3.114;2023-07-31T00:03:11;17.40;99.90
18721;DHT22;9489;50.948;3.114;2023-07-31T00:05:37;17.50;99.90
18721;DHT22;9489;50.948;3.114;2023-07-31T00:08:03;17.40;99.90
18721;DHT22;9489;50.948;3.114;2023-07-31T00:10:28;17.50;99.90
18721;DHT22;9489;50.948;3.114;2023-07-31T00:12:54;17.50;99.90
18721;DHT22;9489;50.948;3.114;2023-07-31T00:15:19;17.50;99.90
18721;DHT22;9489;50.948;3.114;2023-07-31T00:17:45;17.50;99.90
18721;DHT22;9489;50.948;3.114;2023-07-31T00:20:11;17.50;99.90
18721;DHT22;9489;50.948;3.114;2023-07-31T00:22:36;17.50;99.90
18721;DHT22;9489;50.948;3.114;2023-07-31T00:25:02;17.50;99.90
18721;DHT22;9489;50.948;3.114;2023-07-31T00:27:28;17.50;99.90
18721;DHT22;9489;50.948;3.114;2023-07-31T00:29:53;17.50;99.90
18721;DHT22;9489;50.948;3.114;2023-07-31T00:32:19;17.50;99.90
18721;DHT22;9489;50.948;3.114;2023-07-31T00:34:44;17.50;99.90
18721;DHT22;9489;50.948;3.114;2023-07-31T00:37:10;17.50;99.90
18721;DHT22;9489;50.948;3.114;2023-07-31T00:39:36;17.50;99.90
18721;DHT22;9489;50.948;3.114;2023-07-31T00:42:02;17.50;99.90
18721;DHT22;9489;50.948;3.114;2023-07-31T00:44:28;17.50;99.90
18721;DHT22;9489;50.948;3.114;2023-07-31T00:46:54;17.50;99.90
18721;DHT22;9489;50.948;3.114;2023-07-31T00:49:22;17.40;99.90
18721;DHT22;9489;50.948;3.114;2023-07-31T00:51:47;17.50;99.90
18721;DHT22;9489;50.948;3.114;2023-07-31T00:54:13;17.50;99.90
18721;DHT22;9489;50.948;3.114;2023-07-31T00:56:40;17.50;99.90
18721;DHT22;9489;50.948;3.114;2023-07-31T00:59:07;17.50;99.90
18721;DHT22;9489;50.948;3.114;2023-07-31T01:01:32;17.50;99.90
18721;DHT22;9489;50.948;3.114;2023-07-31T01:03:58;17.50;99.90
18721;DHT22;9489;50.948;3.114;2023-07-31T01:11:29;17.50;99.90
18721;DHT22;9489;50.948;3.114;2023-07-31T01:13:55;17.50;99.90
18721;DHT22;9489;50.948;3.114;2023-07-31T01:16:21;17.50;99.90
18721;DHT22;9489;50.948;3.114;2023-07-31T01:18:47;17.50;99.90
18721;DHT22;9489;50.948;3.114;2023-07-31T01:24:36;17.50;99.90
18721;DHT22;9489;50.948;3.114;2023-07-31T01:26:38;17.60;99.90
18721;DHT22;9489;50.948;3.114;2023-07-31T01:31:50;17.60;99.90
18721;DHT22;9489;50.948;3.114;2023-07-31T01:34:17;17.50;99.90
18721;DHT22;9489;50.948;3.114;2023-07-31T01:36:44;17.50;99.90
18721;DHT22;9489;50.948;3.114;2023-07-31T01:39:09;17.50;99.90
18721;DHT22;9489;50.948;3.114;2023-07-31T01:41:35;17.60;99.90
18721;DHT22;9489;50.948;3.114;2023-07-31T01:44:01;17.60;99.90
18721;DHT22;9489;50.948;3.114;2023-07-31T01:46:26;17.50;99.90
18721;DHT22;9489;50.948;3.114;2023-07-31T01:48:52;17.60;99.90
18721;DHT22;9489;50.948;3.114;2023-07-31T01:51:17;17.60;99.90
18721;DHT22;9489;50.948;3.114;2023-07-31T01:53:43;17.60;99.90
18721;DHT22;9489;50.948;3.114;2023-07-31T01:56:08;17.60;99.90
18721;DHT22;9489;50.948;3.114;2023-07-31T01:58:34;17.60;99.90
18721;DHT22;9489;50.948;3.114;2023-07-31T02:01:00;17.70;99.90
18721;DHT22;9489;50.948;3.114;2023-07-31T02:03:25;17.60;99.90
18721;DHT22;9489;50.948;3.114;2023-07-31T02:05:51;17.60;99.90
18721;DHT22;9489;50.948;3.114;2023-07-31T02:08:17;17.60;99.90
18721;DHT22;9489;50.948;3.114;2023-07-31T02:10:43;17.70;99.90
18721;DHT22;9489;50.948;3.114;2023-07-31T02:13:08;17.70;99.90
18721;DHT22;9489;50.948;3.114;2023-07-31T02:15:35;17.60;99.90
18721;DHT22;9489;50.948;3.114;2023-07-31T02:18:00;17.60;99.90
18721;DHT22;9489;50.948;3.114;2023-07-31T02:20:26;17.60;99.90
18721;DHT22;9489;50.948;3.114;2023-07-31T02:22:51;17.50;99.90
18721;DHT22;9489;50.948;3.114;2023-07-31T02:25:17;17.50;99.90
18721;DHT22;9489;50.948;3.114;2023-07-31T02:27:42;17.50;99.90
18721;DHT22;9489;50.948;3.114;2023-07-31T02:30:09;17.50;99.90
18721;DHT22;9489;50.948;3.114;2023-07-31T02:32:34;17.60;99.90
18721;DHT22;9489;50.948;3.114;2023-07-31T02:35:00;17.60;99.90
18721;DHT22;9489;50.948;3.114;2023-07-31T02:37:26;17.60;99.90
18721;DHT22;9489;50.948;3.114;2023-07-31T02:39:54;17.60;99.90
18721;DHT22;9489;50.948;3.114;2023-07-31T02:42:19;17.60;99.90
18721;DHT22;9489;50.948;3.114;2023-07-31T02:44:45;17.60;99.90
18721;DHT22;9489;50.948;3.114;2023-07-31T02:47:10;17.50;99.90
18721;DHT22;9489;50.948;3.114;2023-07-31T02:49:36;17.50;99.90
18721;DHT22;9489;50.948;3.114;2023-07-31T02:52:01;17.40;99.90
18721;DHT22;9489;50.948;3.114;2023-07-31T02:54:27;17.40;99.90
18721;DHT22;9489;50.948;3.114;2023-07-31T02:56:53;17.30;99.90
18721;DHT22;9489;50.948;3.114;2023-07-31T02:59:18;17.20;99.90
18721;DHT22;9489;50.948;3.114;2023-07-31T03:01:44;17.20;99.90
18721;DHT22;9489;50.948;3.114;2023-07-31T03:04:10;17.10;99.90
18721;DHT22;9489;50.948;3.114;2023-07-31T03:06:35;17.10;99.90
18721;DHT22;9489;50.948;3.114;2023-07-31T03:09:01;17.10;99.90
18721;DHT22;9489;50.948;3.114;2023-07-31T03:11:26;17.10;99.90
18721;DHT22;9489;50.948;3.114;2023-07-31T03:13:52;17.10;99.90
18721;DHT22;9489;50.948;3.114;2023-07-31T03:16:18;17.00;99.90
18721;DHT22;9489;50.948;3.114;2023-07-31T03:18:43;17.10;99.90
18721;DHT22;9489;50.948;3.114;2023-07-31T03:21:09;17.00;99.90
18721;DHT22;9489;50.948;3.114;2023-07-31T03:23:35;17.00;99.90
18721;DHT22;9489;50.948;3.114;2023-07-31T03:26:02;17.00;99.90
18721;DHT22;9489;50.948;3.114;2023-07-31T03:28:31;17.00;99.90
18721;DHT22;9489;50.948;3.114;2023-07-31T03:30:56;17.00;99.90
18721;DHT22;9489;50.948;3.114;2023-07-31T03:33:22;17.00;99.90
18721;DHT22;9489;50.948;3.114;2023-07-31T03:35:48;17.00;99.90
18721;DHT22;9489;50.948;3.114;2023-07-31T03:38:13;17.00;99.90
18721;DHT22;9489;50.948;3.114;2023-07-31T03:40:39;17.00;99.90
18721;DHT22;9489;50.948;3.114;2023-07-31T03:43:05;17.00;99.90
18721;DHT22;9489;50.948;3.114;2023-07-31T03:45:31;17.00;99.90
18721;DHT22;9489;50.948;3.114;2023-07-31T03:47:56;16.90;99.90
18721;DHT22;9489;50.948;3.114;2023-07-31T03:50:22;17.00;99.90
18721;DHT22;9489;50.948;3.114;2023-07-31T03:52:48;17.00;99.90
18721;DHT22;9489;50.948;3.114;2023-07-31T03:55:14;17.00;99.90
18721;DHT22;9489;50.948;3.114;2023-07-31T03:57:39;17.00;99.90
18721;DHT22;9489;50.948;3.114;2023-07-31T04:00:05;17.00;99.90
18721;DHT22;9489;50.948;3.114;2023-07-31T04:02:31;17.10;99.90
18721;DHT22;9489;50.948;3.114;2023-07-31T04:04:57;17.10;99.90
18721;DHT22;9489;50.948;3.114;2023-07-31T04:07:23;17.10;99.90
18721;DHT22;9489;50.948;3.114;2023-07-31T04:09:48;17.10;99.90
18721;DHT22;9489;50.948;3.114;2023-07-31T04:12:14;17.20;99.90
18721;DHT22;9489;50.948;3.114;2023-07-31T04:14:39;17.10;99.90
18721;DHT22;9489;50.948;3.114;2023-07-31T04:17:05;17.20;99.90
18721;DHT22;9489;50.948;3.114;2023-07-31T04:19:31;17.20;99.90
18721;DHT22;9489;50.948;3.114;2023-07-31T04:21:56;17.10;99.90
18721;DHT22;9489;50.948;3.114;2023-07-31T04:24:22;17.20;99.90
18721;DHT22;9489;50.948;3.114;2023-07-31T04:26:51;17.20;99.90
18721;DHT22;9489;50.948;3.114;2023-07-31T04:29:17;17.20;99.90
18721;DHT22;9489;50.948;3.114;2023-07-31T04:31:43;17.20;99.90
18721;DHT22;9489;50.948;3.114;2023-07-31T04:34:09;17.20;99.90
18721;DHT22;9489;50.948;3.114;2023-07-31T04:36:35;17.20;99.90
18721;DHT22;9489;50.948;3.114;2023-07-31T04:39:01;17.20;99.90
18721;DHT22;9489;50.948;3.114;2023-07-31T04:41:27;17.20;99.90
18721;DHT22;9489;50.948;3.114;2023-07-31T04:43:53;17.20;99.90
18721;DHT22;9489;50.948;3.114;2023-07-31T04:46:19;17.20;99.90
18721;DHT22;9489;50.948;3.114;2023-07-31T04:48:44;17.20;99.90
18721;DHT22;9489;50.948;3.114;2023-07-31T04:51:10;17.20;99.90
18721;DHT22;9489;50.948;3.114;2023-07-31T04:53:36;17.20;99.90
18721;DHT22;9489;50.948;3.114;2023-07-31T04:56:02;17.20;99.90
18721;DHT22;9489;50.948;3.114;2023-07-31T04:58:28;17.20;99.90
18721;DHT22;9489;50.948;3.114;2023-07-31T05:00:53;17.20;99.90
18721;DHT22;9489;50.948;3.114;2023-07-31T05:03:19;17.20;99.90
18721;DHT22;9489;50.948;3.114;2023-07-31T05:05:44;17.20;99.90
18721;DHT22;9489;50.948;3.114;2023-07-31T05:08:10;17.20;99.90
18721;DHT22;9489;50.948;3.114;2023-07-31T05:10:36;17.20;99.90
18721;DHT22;9489;50.948;3.114;2023-07-31T05:13:01;17.20;99.90
18721;DHT22;9489;50.948;3.114;2023-07-31T05:15:28;17.20;99.90
18721;DHT22;9489;50.948;3.114;2023-07-31T05:17:53;17.20;99.90
18721;DHT22;9489;50.948;3.114;2023-07-31T05:20:19;17.20;99.90
18721;DHT22;9489;50.948;3.114;2023-07-31T05:22:45;17.20;99.90
18721;DHT22;9489;50.948;3.114;2023-07-31T05:25:10;17.20;99.90
18721;DHT22;9489;50.948;3.114;2023-07-31T05:27:36;17.20;99.90
18721;DHT22;9489;50.948;3.114;2023-07-31T05:30:02;17.20;99.90
18721;DHT22;9489;50.948;3.114;2023-07-31T05:32:27;17.20;99.90
18721;DHT22;9489;50.948;3.114;2023-07-31T05:34:53;17.20;99.90
18721;DHT22;9489;50.948;3.114;2023-07-31T05:37:19;17.20;99.90
18721;DHT22;9489;50.948;3.114;2023-07-31T05:39:45;17.20;99.90
18721;DHT22;9489;50.948;3.114;2023-07-31T05:42:11;17.20;99.90
18721;DHT22;9489;50.948;3.114;2023-07-31T05:44:36;17.20;99.90
18721;DHT22;9489;50.948;3.114;2023-07-31T05:47:02;17.20;99.90
18721;DHT22;9489;50.948;3.114;2023-07-31T05:49:28;17.20;99.90
18721;DHT22;9489;50.948;3.114;2023-07-31T05:51:53;17.20;99.90
18721;DHT22;9489;50.948;3.114;2023-07-31T05:54:19;17.20;99.90
18721;DHT22;9489;50.948;3.114;2023-07-31T05:56:45;17.20;99.90
18721;DHT22;9489;50.948;3.114;2023-07-31T05:59:12;17.30;99.90
18721;DHT22;9489;50.948;3.114;2023-07-31T06:01:39;17.30;99.90
18721;DHT22;9489;50.948;3.114;2023-07-31T06:04:04;17.30;99.90
18721;DHT22;9489;50.948;3.114;2023-07-31T06:06:30;17.40;99.90
18721;DHT22;9489;50.948;3.114;2023-07-31T06:08:56;17.40;99.90
18721;DHT22;9489;50.948;3.114;2023-07-31T06:11:22;17.40;99.90
18721;DHT22;9489;50.948;3.114;2023-07-31T06:13:48;17.40;99.90
18721;DHT22;9489;50.948;3.114;2023-07-31T06:16:15;17.40;99.90
18721;DHT22;9489;50.948;3.114;2023-07-31T06:18:41;17.50;99.90
18721;DHT22;9489;50.948;3.114;2023-07-31T06:21:07;17.50;99.90
18721;DHT22;9489;50.948;3.114;2023-07-31T06:23:33;17.50;99.90
18721;DHT22;9489;50.948;3.114;2023-07-31T06:25:59;17.50;99.90
18721;DHT22;9489;50.948;3.114;2023-07-31T06:28:31;17.50;99.90
18721;DHT22;9489;50.948;3.114;2023-07-31T06:30:58;17.60;99.90
18721;DHT22;9489;50.948;3.114;2023-07-31T06:33:24;17.60;99.90
18721;DHT22;9489;50.948;3.114;2023-07-31T06:35:50;17.60;99.90
18721;DHT22;9489;50.948;3.114;2023-07-31T06:38:18;17.60;99.90
18721;DHT22;9489;50.948;3.114;2023-07-31T06:40:44;17.70;99.90
18721;DHT22;9489;50.948;3.114;2023-07-31T06:43:09;17.70;99.90
18721;DHT22;9489;50.948;3.114;2023-07-31T06:45:36;17.70;99.90
18721;DHT22;9489;50.948;3.114;2023-07-31T06:48:02;17.70;99.90
18721;DHT22;9489;50.948;3.114;2023-07-31T06:50:32;17.70;99.90
18721;DHT22;9489;50.948;3.114;2023-07-31T06:52:58;17.70;99.90
18721;DHT22;9489;50.948;3.114;2023-07-31T06:55:24;17.70;99.90
18721;DHT22;9489;50.948;3.114;2023-07-31T06:57:52;17.70;99.90
18721;DHT22;9489;50.948;3.114;2023-07-31T07:00:19;17.80;99.90
18721;DHT22;9489;50.948;3.114;2023-07-31T07:02:45;17.80;99.90
18721;DHT22;9489;50.948;3.114;2023-07-31T07:05:13;17.80;99.90
18721;DHT22;9489;50.948;3.114;2023-07-31T07:07:39;17.70;99.90
18721;DHT22;9489;50.948;3.114;2023-07-31T07:10:05;17.70;99.90
18721;DHT22;9489;50.948;3.114;2023-07-31T07:12:32;17.70;99.90
18721;DHT22;9489;50.948;3.114;2023-07-31T07:14:58;17.60;99.90
18721;DHT22;9489;50.948;3.114;2023-07-31T07:17:25;17.60;99.90
18721;DHT22;9489;50.948;3.114;2023-07-31T07:19:51;17.60;99.90
18721;DHT22;9489;50.948;3.114;2023-07-31T07:22:17;17.70;99.90
18721;DHT22;9489;50.948;3.114;2023-07-31T07:24:43;17.70;99.90
18721;DHT22;9489;50.948;3.114;2023-07-31T07:27:08;17.80;99.90
18721;DHT22;9489;50.948;3.114;2023-07-31T07:29:35;17.70;99.90
18721;DHT22;9489;50.948;3.114;2023-07-31T07:32:01;17.70;99.90
18721;DHT22;9489;50.948;3.114;2023-07-31T07:34:27;17.70;99.90
18721;DHT22;9489;50.948;3.114;2023-07-31T07:36:53;17.70;99.90
18721;DHT22;9489;50.948;3.114;2023-07-31T07:39:19;17.70;99.90
18721;DHT22;9489;50.948;3.114;2023-07-31T07:41:46;17.70;99.90
18721;DHT22;9489;50.948;3.114;2023-07-31T07:44:12;17.80;99.90
18721;DHT22;9489;50.948;3.114;2023-07-31T07:46:37;17.90;99.90
18721;DHT22;9489;50.948;3.114;2023-07-31T07:49:03;17.90;99.90
18721;DHT22;9489;50.948;3.114;2023-07-31T07:51:29;17.80;99.90
18721;DHT22;9489;50.948;3.114;2023-07-31T07:53:56;17.70;99.90
18721;DHT22;9489;50.948;3.114;2023-07-31T07:56:22;17.70;99.90
18721;DHT22;9489;50.948;3.114;2023-07-31T07:58:49;17.80;99.90
18721;DHT22;9489;50.948;3.114;2023-07-31T08:01:15;17.80;99.90
18721;DHT22;9489;50.948;3.114;2023-07-31T08:03:41;17.80;99.90
18721;DHT22;9489;50.948;3.114;2023-07-31T08:06:07;17.90;99.90
18721;DHT22;9489;50.948;3.114;2023-07-31T08:08:35;17.90;99.90
18721;DHT22;9489;50.948;3.114;2023-07-31T08:11:01;18.00;99.90
18721;DHT22;9489;50.948;3.114;2023-07-31T08:13:26;18.00;99.90
18721;DHT22;9489;50.948;3.114;2023-07-31T08:15:52;18.10;99.90
18721;DHT22;9489;50.948;3.114;2023-07-31T08:18:18;18.10;99.90
18721;DHT22;9489;50.948;3.114;2023-07-31T08:20:44;18.10;99.90
18721;DHT22;9489;50.948;3.114;2023-07-31T08:23:10;18.10;99.90
18721;DHT22;9489;50.948;3.114;2023-07-31T08:25:36;18.20;99.90
18721;DHT22;9489;50.948;3.114;2023-07-31T08:28:05;18.20;99.90
18721;DHT22;9489;50.948;3.114;2023-07-31T08:30:31;18.20;99.90
18721;DHT22;9489;50.948;3.114;2023-07-31T08:32:58;18.20;99.90
18721;DHT22;9489;50.948;3.114;2023-07-31T08:35:25;18.20;99.90
18721;DHT22;9489;50.948;3.114;2023-07-31T08:37:50;18.20;99.90
18721;DHT22;9489;50.948;3.114;2023-07-31T08:40:16;18.10;99.90
18721;DHT22;9489;50.948;3.114;2023-07-31T08:42:49;18.10;99.90
18721;DHT22;9489;50.948;3.114;2023-07-31T08:45:16;18.10;99.90
18721;DHT22;9489;50.948;3.114;2023-07-31T08:47:46;18.10;99.90
18721;DHT22;9489;50.948;3.114;2023-07-31T08:50:16;18.00;99.90
18721;DHT22;9489;50.948;3.114;2023-07-31T08:52:43;18.00;99.90
18721;DHT22;9489;50.948;3.114;2023-07-31T08:55:09;18.00;99.90
18721;DHT22;9489;50.948;3.114;2023-07-31T08:57:37;18.10;99.90
18721;DHT22;9489;50.948;3.114;2023-07-31T09:00:04;18.10;99.90
18721;DHT22;9489;50.948;3.114;2023-07-31T09:02:51;18.20;99.90
18721;DHT22;9489;50.948;3.114;2023-07-31T09:05:17;18.20;99.90
18721;DHT22;9489;50.948;3.114;2023-07-31T09:07:45;18.30;99.90
18721;DHT22;9489;50.948;3.114;2023-07-31T09:10:12;18.40;99.90
18721;DHT22;9489;50.948;3.114;2023-07-31T09:12:38;18.50;99.90
18721;DHT22;9489;50.948;3.114;2023-07-31T09:15:05;18.50;99.90
18721;DHT22;9489;50.948;3.114;2023-07-31T09:17:32;18.50;99.90
18721;DHT22;9489;50.948;3.114;2023-07-31T09:20:13;18.40;99.90
18721;DHT22;9489;50.948;3.114;2023-07-31T09:22:39;18.40;99.90
18721;DHT22;9489;50.948;3.114;2023-07-31T09:25:24;18.40;99.90
18721;DHT22;9489;50.948;3.114;2023-07-31T09:27:59;18.40;99.90
18721;DHT22;9489;50.948;3.114;2023-07-31T09:30:25;18.50;99.90
18721;DHT22;9489;50.948;3.114;2023-07-31T09:33:03;18.60;99.90
18721;DHT22;9489;50.948;3.114;2023-07-31T09:35:31;18.70;99.90
18721;DHT22;9489;50.948;3.114;2023-07-31T09:38:20;18.90;99.90
18721;DHT22;9489;50.948;3.114;2023-07-31T09:40:48;19.00;99.90
18721;DHT22;9489;50.948;3.114;2023-07-31T09:43:20;19.10;99.90
18721;DHT22;9489;50.948;3.114;2023-07-31T09:45:46;19.00;99.90
18721;DHT22;9489;50.948;3.114;2023-07-31T09:48:16;18.90;99.90
18721;DHT22;9489;50.948;3.114;2023-07-31T09:50:44;18.90;99.90
18721;DHT22;9489;50.948;3.114;2023-07-31T09:53:10;18.90;99.90
18721;DHT22;9489;50.948;3.114;2023-07-31T09:55:37;18.80;99.90
18721;DHT22;9489;50.948;3.114;2023-07-31T09:58:08;18.70;99.90
18721;DHT22;9489;50.948;3.114;2023-07-31T10:00:34;18.60;99.90
18721;DHT22;9489;50.948;3.114;2023-07-31T10:03:02;18.60;99.90
18721;DHT22;9489;50.948;3.114;2023-07-31T10:05:35;18.70;99.90
18721;DHT22;9489;50.948;3.114;2023-07-31T10:08:01;18.70;99.90
18721;DHT22;9489;50.948;3.114;2023-07-31T10:10:27;18.80;99.90
18721;DHT22;9489;50.948;3.114;2023-07-31T10:12:54;18.90;99.90
18721;DHT22;9489;50.948;3.114;2023-07-31T10:15:21;19.00;99.90
18721;DHT22;9489;50.948;3.114;2023-07-31T10:17:49;19.10;99.90
18721;DHT22;9489;50.948;3.114;2023-07-31T10:20:16;19.20;99.90
18721;DHT22;9489;50.948;3.114;2023-07-31T10:22:43;19.40;99.90
18721;DHT22;9489;50.948;3.114;2023-07-31T10:25:09;19.60;99.90
18721;DHT22;9489;50.948;3.114;2023-07-31T10:27:41;19.70;99.90
18721;DHT22;9489;50.948;3.114;2023-07-31T10:30:17;19.70;99.90
18721;DHT22;9489;50.948;3.114;2023-07-31T10:32:44;19.60;99.90
18721;DHT22;9489;50.948;3.114;2023-07-31T10:35:11;19.60;99.90
18721;DHT22;9489;50.948;3.114;2023-07-31T10:37:38;19.60;99.90
18721;DHT22;9489;50.948;3.114;2023-07-31T10:40:25;19.60;99.90
18721;DHT22;9489;50.948;3.114;2023-07-31T10:42:56;19.60;99.90
18721;DHT22;9489;50.948;3.114;2023-07-31T10:45:40;19.60;99.90
18721;DHT22;9489;50.948;3.114;2023-07-31T10:48:13;19.60;99.90
18721;DHT22;9489;50.948;3.114;2023-07-31T10:51:29;19.60;99.90
18721;DHT22;9489;50.948;3.114;2023-07-31T10:53:36;19.70;99.90
18721;DHT22;9489;50.948;3.114;2023-07-31T10:56:04;19.80;99.90
18721;DHT22;9489;50.948;3.114;2023-07-31T10:58:31;19.80;99.90
18721;DHT22;9489;50.948;3.114;2023-07-31T11:01:02;19.90;99.90
18721;DHT22;9489;50.948;3.114;2023-07-31T11:03:48;19.80;99.90
18721;DHT22;9489;50.948;3.114;2023-07-31T11:06:15;19.80;99.90
18721;DHT22;9489;50.948;3.114;2023-07-31T11:08:49;19.90;99.90
18721;DHT22;9489;50.948;3.114;2023-07-31T11:11:17;19.90;99.90
18721;DHT22;9489;50.948;3.114;2023-07-31T11:16:09;19.80;99.90
18721;DHT22;9489;50.948;3.114;2023-07-31T11:18:35;19.80;99.90
18721;DHT22;9489;50.948;3.114;2023-07-31T11:21:03;19.90;99.90
18721;DHT22;9489;50.948;3.114;2023-07-31T11:23:29;19.80;99.90
18721;DHT22;9489;50.948;3.114;2023-07-31T11:25:59;19.80;99.90
18721;DHT22;9489;50.948;3.114;2023-07-31T11:28:25;19.80;99.90
18721;DHT22;9489;50.948;3.114;2023-07-31T11:30:50;19.90;99.90
18721;DHT22;9489;50.948;3.114;2023-07-31T11:33:16;20.00;99.90
18721;DHT22;9489;50.948;3.114;2023-07-31T11:35:48;20.00;99.90
18721;DHT22;9489;50.948;3.114;2023-07-31T11:40:56;20.10;99.90
18721;DHT22;9489;50.948;3.114;2023-07-31T11:43:22;20.10;99.90
18721;DHT22;9489;50.948;3.114;2023-07-31T11:45:51;20.10;99.90
18721;DHT22;9489;50.948;3.114;2023-07-31T11:48:26;20.00;99.90
18721;DHT22;9489;50.948;3.114;2023-07-31T11:50:54;20.00;99.90
18721;DHT22;9489;50.948;3.114;2023-07-31T11:56:09;20.00;99.90
18721;DHT22;9489;50.948;3.114;2023-07-31T11:58:37;20.00;99.90
18721;DHT22;9489;50.948;3.114;2023-07-31T12:01:04;20.00;99.90
18721;DHT22;9489;50.948;3.114;2023-07-31T12:03:31;20.00;99.90
18721;DHT22;9489;50.948;3.114;2023-07-31T12:05:59;20.00;99.90
18721;DHT22;9489;50.948;3.114;2023-07-31T12:08:25;20.00;99.90
18721;DHT22;9489;50.948;3.114;2023-07-31T12:10:52;19.90;99.90
18721;DHT22;9489;50.948;3.114;2023-07-31T12:13:22;19.70;99.90
18721;DHT22;9489;50.948;3.114;2023-07-31T12:15:49;19.60;99.90
18721;DHT22;9489;50.948;3.114;2023-07-31T12:18:20;19.50;99.90
18721;DHT22;9489;50.948;3.114;2023-07-31T12:20:56;19.50;99.90
18721;DHT22;9489;50.948;3.114;2023-07-31T12:23:26;19.40;99.90
18721;DHT22;9489;50.948;3.114;2023-07-31T12:26:10;19.30;99.90
18721;DHT22;9489;50.948;3.114;2023-07-31T12:28:37;19.20;99.90
18721;DHT22;9489;50.948;3.114;2023-07-31T12:31:04;19.20;99.90
18721;DHT22;9489;50.948;3.114;2023-07-31T12:33:32;19.20;99.90
18721;DHT22;9489;50.948;3.114;2023-07-31T12:36:00;19.10;99.90
18721;DHT22;9489;50.948;3.114;2023-07-31T12:38:26;19.00;99.90
18721;DHT22;9489;50.948;3.114;2023-07-31T12:40:51;18.90;99.90
18721;DHT22;9489;50.948;3.114;2023-07-31T12:43:17;18.70;99.90
18721;DHT22;9489;50.948;3.114;2023-07-31T12:45:43;18.70;99.90
18721;DHT22;9489;50.948;3.114;2023-07-31T12:48:08;18.70;99.90
18721;DHT22;9489;50.948;3.114;2023-07-31T12:50:34;18.60;99.90
18721;DHT22;9489;50.948;3.114;2023-07-31T12:53:02;18.60;99.90
18721;DHT22;9489;50.948;3.114;2023-07-31T12:55:28;18.60;99.90
18721;DHT22;9489;50.948;3.114;2023-07-31T12:57:55;18.60;99.90
18721;DHT22;9489;50.948;3.114;2023-07-31T13:00:22;18.50;99.90
18721;DHT22;9489;50.948;3.114;2023-07-31T13:02:47;18.50;99.90
18721;DHT22;9489;50.948;3.114;2023-07-31T13:05:13;18.50;99.90
18721;DHT22;9489;50.948;3.114;2023-07-31T13:07:40;18.40;99.90
18721;DHT22;9489;50.948;3.114;2023-07-31T13:10:07;18.50;99.90
18721;DHT22;9489;50.948;3.114;2023-07-31T13:12:33;18.50;99.90
18721;DHT22;9489;50.948;3.114;2023-07-31T13:14:59;18.50;99.90
18721;DHT22;9489;50.948;3.114;2023-07-31T13:17:24;18.50;99.90
18721;DHT22;9489;50.948;3.114;2023-07-31T13:19:50;18.50;99.90
18721;DHT22;9489;50.948;3.114;2023-07-31T13:22:16;18.60;99.90
18721;DHT22;9489;50.948;3.114;2023-07-31T13:24:41;18.50;99.90
18721;DHT22;9489;50.948;3.114;2023-07-31T13:27:07;18.60;99.90
18721;DHT22;9489;50.948;3.114;2023-07-31T13:29:32;18.60;99.90
18721;DHT22;9489;50.948;3.114;2023-07-31T13:31:58;18.60;99.90
18721;DHT22;9489;50.948;3.114;2023-07-31T13:34:24;18.70;99.90
18721;DHT22;9489;50.948;3.114;2023-07-31T13:36:50;18.70;99.90
18721;DHT22;9489;50.948;3.114;2023-07-31T13:39:15;18.70;99.90
18721;DHT22;9489;50.948;3.114;2023-07-31T13:41:41;18.70;99.90
18721;DHT22;9489;50.948;3.114;2023-07-31T13:44:07;18.80;99.90
18721;DHT22;9489;50.948;3.114;2023-07-31T13:46:32;18.70;99.90
18721;DHT22;9489;50.948;3.114;2023-07-31T13:48:59;18.70;99.90
18721;DHT22;9489;50.948;3.114;2023-07-31T13:51:25;18.70;99.90
18721;DHT22;9489;50.948;3.114;2023-07-31T13:53:51;18.70;99.90
18721;DHT22;9489;50.948;3.114;2023-07-31T13:56:17;18.70;99.90
18721;DHT22;9489;50.948;3.114;2023-07-31T13:58:42;18.80;99.90
18721;DHT22;9489;50.948;3.114;2023-07-31T14:01:08;18.80;99.90
18721;DHT22;9489;50.948;3.114;2023-07-31T14:03:34;18.70;99.90
18721;DHT22;9489;50.948;3.114;2023-07-31T14:06:00;18.70;99.90
18721;DHT22;9489;50.948;3.114;2023-07-31T14:08:25;18.70;99.90
18721;DHT22;9489;50.948;3.114;2023-07-31T14:10:51;18.70;99.90
18721;DHT22;9489;50.948;3.114;2023-07-31T14:13:17;18.60;99.90
18721;DHT22;9489;50.948;3.114;2023-07-31T14:15:42;18.60;99.90
18721;DHT22;9489;50.948;3.114;2023-07-31T14:18:08;18.60;99.90
18721;DHT22;9489;50.948;3.114;2023-07-31T14:20:34;18.70;99.90
18721;DHT22;9489;50.948;3.114;2023-07-31T14:23:00;18.70;99.90
18721;DHT22;9489;50.948;3.114;2023-07-31T14:25:26;18.60;99.90
18721;DHT22;9489;50.948;3.114;2023-07-31T14:27:51;18.70;99.90
18721;DHT22;9489;50.948;3.114;2023-07-31T14:30:17;18.60;99.90
18721;DHT22;9489;50.948;3.114;2023-07-31T14:32:44;18.70;99.90
18721;DHT22;9489;50.948;3.114;2023-07-31T14:35:09;18.70;99.90
18721;DHT22;9489;50.948;3.114;2023-07-31T14:37:43;18.70;99.90
18721;DHT22;9489;50.948;3.114;2023-07-31T14:40:11;18.70;99.90
18721;DHT22;9489;50.948;3.114;2023-07-31T14:42:39;18.70;99.90
18721;DHT22;9489;50.948;3.114;2023-07-31T14:45:05;18.70;99.90
18721;DHT22;9489;50.948;3.114;2023-07-31T14:47:31;18.70;99.90
18721;DHT22;9489;50.948;3.114;2023-07-31T14:49:58;18.60;99.90
18721;DHT22;9489;50.948;3.114;2023-07-31T14:52:24;18.60;99.90
18721;DHT22;9489;50.948;3.114;2023-07-31T14:54:49;18.60;99.90
18721;DHT22;9489;50.948;3.114;2023-07-31T14:57:15;18.60;99.90
18721;DHT22;9489;50.948;3.114;2023-07-31T14:59:41;18.60;99.90
18721;DHT22;9489;50.948;3.114;2023-07-31T15:02:08;18.60;99.90
18721;DHT22;9489;50.948;3.114;2023-07-31T15:04:35;18.60;99.90
18721;DHT22;9489;50.948;3.114;2023-07-31T15:07:00;18.60;99.90
18721;DHT22;9489;50.948;3.114;2023-07-31T15:09:26;18.60;99.90
18721;DHT22;9489;50.948;3.114;2023-07-31T15:11:52;18.60;99.90
18721;DHT22;9489;50.948;3.114;2023-07-31T15:14:18;18.60;99.90
18721;DHT22;9489;50.948;3.114;2023-07-31T15:16:43;18.60;99.90
18721;DHT22;9489;50.948;3.114;2023-07-31T15:19:09;18.70;99.90
18721;DHT22;9489;50.948;3.114;2023-07-31T15:21:36;18.60;99.90
18721;DHT22;9489;50.948;3.114;2023-07-31T15:24:02;18.70;99.90
18721;DHT22;9489;50.948;3.114;2023-07-31T15:26:28;18.70;99.90
18721;DHT22;9489;50.948;3.114;2023-07-31T15:29:05;18.70;99.90
18721;DHT22;9489;50.948;3.114;2023-07-31T15:31:38;18.70;99.90
18721;DHT22;9489;50.948;3.114;2023-07-31T15:34:04;18.70;99.90
18721;DHT22;9489;50.948;3.114;2023-07-31T15:36:30;18.70;99.90
18721;DHT22;9489;50.948;3.114;2023-07-31T15:38:56;18.70;99.90
18721;DHT22;9489;50.948;3.114;2023-07-31T15:41:22;18.70;99.90
18721;DHT22;9489;50.948;3.114;2023-07-31T15:43:49;18.70;99.90
18721;DHT22;9489;50.948;3.114;2023-07-31T15:46:15;18.70;99.90
18721;DHT22;9489;50.948;3.114;2023-07-31T15:48:40;18.70;99.90
18721;DHT22;9489;50.948;3.114;2023-07-31T15:51:07;18.70;99.90
18721;DHT22;9489;50.948;3.114;2023-07-31T15:53:33;18.70;99.90
18721;DHT22;9489;50.948;3.114;2023-07-31T15:55:58;18.70;99.90
18721;DHT22;9489;50.948;3.114;2023-07-31T15:58:24;18.70;99.90
18721;DHT22;9489;50.948;3.114;2023-07-31T16:00:50;18.80;99.90